sensor_id;sensor_type;location;lat;lon;timestamp;temperature;humidity
42201;DHT22;27869;51.442;7.540;2023-07-13T00:01:45;17.30;99.90
42201;DHT22;27869;51.442;7.540;2023-07-13T00:04:15;17.30;99.90
42201;DHT22;27869;51.442;7.540;2023-07-13T00:06:42;17.30;99.90
42201;DHT22;27869;51.442;7.540;2023-07-13T00:09:11;17.20;99.90
42201;DHT22;27869;51.442;7.540;2023-07-13T00:11:39;17.20;99.90
42201;DHT22;27869;51.442;7.540;2023-07-13T00:14:06;17.20;99.90
42201;DHT22;27869;51.442;7.540;2023-07-13T00:16:35;17.20;99.90
42201;DHT22;27869;51.442;7.540;2023-07-13T00:19:02;17.10;99.90
42201;DHT22;27869;51.442;7.540;2023-07-13T00:21:29;17.10;99.90
42201;DHT22;27869;51.442;7.540;2023-07-13T00:23:57;17.10;99.90
42201;DHT22;27869;51.442;7.540;2023-07-13T00:26:25;17.10;99.90
42201;DHT22;27869;51.442;7.540;2023-07-13T00:28:52;17.10;99.90
42201;DHT22;27869;51.442;7.540;2023-07-13T00:31:19;17.00;99.90
42201;DHT22;27869;51.442;7.540;2023-07-13T00:33:46;17.00;99.90
42201;DHT22;27869;51.442;7.540;2023-07-13T00:36:13;17.00;99.90
42201;DHT22;27869;51.442;7.540;2023-07-13T00:38:40;16.90;99.90
42201;DHT22;27869;51.442;7.540;2023-07-13T00:41:07;16.80;99.90
42201;DHT22;27869;51.442;7.540;2023-07-13T00:43:35;16.80;99.90
42201;DHT22;27869;51.442;7.540;2023-07-13T00:46:18;16.70;99.90
42201;DHT22;27869;51.442;7.540;2023-07-13T00:48:48;16.70;99.90
42201;DHT22;27869;51.442;7.540;2023-07-13T00:51:15;16.60;99.90
42201;DHT22;27869;51.442;7.540;2023-07-13T00:53:43;16.60;99.90
42201;DHT22;27869;51.442;7.540;2023-07-13T00:56:13;16.50;99.90
42201;DHT22;27869;51.442;7.540;2023-07-13T00:58:41;16.40;99.90
42201;DHT22;27869;51.442;7.540;2023-07-13T01:01:08;16.40;99.90
42201;DHT22;27869;51.442;7.540;2023-07-13T01:03:35;16.30;99.90
42201;DHT22;27869;51.442;7.540;2023-07-13T01:06:03;16.20;99.90
42201;DHT22;27869;51.442;7.540;2023-07-13T01:08:30;16.20;99.90
42201;DHT22;27869;51.442;7.540;2023-07-13T01:10:58;16.20;99.90
42201;DHT22;27869;51.442;7.540;2023-07-13T01:13:25;16.10;99.90
42201;DHT22;27869;51.442;7.540;2023-07-13T01:15:56;16.00;99.90
42201;DHT22;27869;51.442;7.540;2023-07-13T01:18:26;16.00;99.90
42201;DHT22;27869;51.442;7.540;2023-07-13T01:20:56;16.00;99.90
42201;DHT22;27869;51.442;7.540;2023-07-13T01:23:23;16.00;99.90
42201;DHT22;27869;51.442;7.540;2023-07-13T01:25:51;16.00;99.90
42201;DHT22;27869;51.442;7.540;2023-07-13T01:28:19;16.00;99.90
42201;DHT22;27869;51.442;7.540;2023-07-13T01:30:47;16.00;99.90
42201;DHT22;27869;51.442;7.540;2023-07-13T01:33:15;16.00;99.90
42201;DHT22;27869;51.442;7.540;2023-07-13T01:35:42;16.00;99.90
42201;DHT22;27869;51.442;7.540;2023-07-13T01:38:13;16.00;99.90
42201;DHT22;27869;51.442;7.540;2023-07-13T01:40:40;16.00;99.90
42201;DHT22;27869;51.442;7.540;2023-07-13T01:43:07;15.90;99.90
42201;DHT22;27869;51.442;7.540;2023-07-13T01:45:34;15.90;99.90
42201;DHT22;27869;51.442;7.540;2023-07-13T01:48:01;15.80;99.90
42201;DHT22;27869;51.442;7.540;2023-07-13T01:50:28;15.80;99.90
42201;DHT22;27869;51.442;7.540;2023-07-13T01:52:55;15.80;99.90
42201;DHT22;27869;51.442;7.540;2023-07-13T01:55:23;15.80;99.90
42201;DHT22;27869;51.442;7.540;2023-07-13T01:57:50;15.80;99.90
42201;DHT22;27869;51.442;7.540;2023-07-13T02:00:17;15.80;99.90
42201;DHT22;27869;51.442;7.540;2023-07-13T02:02:44;15.80;99.90
42201;DHT22;27869;51.442;7.540;2023-07-13T02:05:11;15.80;99.90
42201;DHT22;27869;51.442;7.540;2023-07-13T02:07:38;15.80;99.90
42201;DHT22;27869;51.442;7.540;2023-07-13T02:10:06;15.80;99.90
42201;DHT22;27869;51.442;7.540;2023-07-13T02:12:34;15.80;99.90
42201;DHT22;27869;51.442;7.540;2023-07-13T02:15:01;15.80;99.90
42201;DHT22;27869;51.442;7.540;2023-07-13T02:17:28;15.70;99.90
42201;DHT22;27869;51.442;7.540;2023-07-13T02:19:55;15.60;99.90
42201;DHT22;27869;51.442;7.540;2023-07-13T02:22:23;15.60;99.90
42201;DHT22;27869;51.442;7.540;2023-07-13T02:24:50;15.60;99.90
42201;DHT22;27869;51.442;7.540;2023-07-13T02:27:16;15.60;99.90
42201;DHT22;27869;51.442;7.540;2023-07-13T02:29:45;15.60;99.90
42201;DHT22;27869;51.442;7.540;2023-07-13T02:32:12;15.60;99.90
42201;DHT22;27869;51.442;7.540;2023-07-13T02:34:41;15.60;99.90
42201;DHT22;27869;51.442;7.540;2023-07-13T02:37:08;15.60;99.90
42201;DHT22;27869;51.442;7.540;2023-07-13T02:39:35;15.60;99.90
42201;DHT22;27869;51.442;7.540;2023-07-13T02:42:02;15.60;99.90
42201;DHT22;27869;51.442;7.540;2023-07-13T02:44:29;15.60;99.90
42201;DHT22;27869;51.442;7.540;2023-07-13T02:46:57;15.60;99.90
42201;DHT22;27869;51.442;7.540;2023-07-13T02:49:24;15.60;99.90
42201;DHT22;27869;51.442;7.540;2023-07-13T02:51:51;15.60;99.90
42201;DHT22;27869;51.442;7.540;2023-07-13T02:54:18;15.60;99.90
42201;DHT22;27869;51.442;7.540;2023-07-13T02:56:45;15.50;99.90
42201;DHT22;27869;51.442;7.540;2023-07-13T02:59:12;15.50;99.90
42201;DHT22;27869;51.442;7.540;2023-07-13T03:01:39;15.50;99.90
42201;DHT22;27869;51.442;7.540;2023-07-13T03:04:07;15.50;99.90
42201;DHT22;27869;51.442;7.540;2023-07-13T03:06:34;15.50;99.90
42201;DHT22;27869;51.442;7.540;2023-07-13T03:09:01;15.40;99.90
42201;DHT22;27869;51.442;7.540;2023-07-13T03:11:29;15.40;99.90
42201;DHT22;27869;51.442;7.540;2023-07-13T03:13:57;15.40;99.90
42201;DHT22;27869;51.442;7.540;2023-07-13T03:16:24;15.40;99.90
42201;DHT22;27869;51.442;7.540;2023-07-13T03:18:51;15.40;99.90
42201;DHT22;27869;51.442;7.540;2023-07-13T03:21:19;15.40;99.90
42201;DHT22;27869;51.442;7.540;2023-07-13T03:23:46;15.40;99.90
42201;DHT22;27869;51.442;7.540;2023-07-13T03:26:16;15.40;99.90
42201;DHT22;27869;51.442;7.540;2023-07-13T03:28:44;15.40;99.90
42201;DHT22;27869;51.442;7.540;2023-07-13T03:31:13;15.40;99.90
42201;DHT22;27869;51.442;7.540;2023-07-13T03:33:40;15.50;99.90
42201;DHT22;27869;51.442;7.540;2023-07-13T03:36:11;15.50;99.90
42201;DHT22;27869;51.442;7.540;2023-07-13T03:38:40;15.50;99.90
42201;DHT22;27869;51.442;7.540;2023-07-13T03:41:07;15.50;99.90
42201;DHT22;27869;51.442;7.540;2023-07-13T03:43:34;15.50;99.90
42201;DHT22;27869;51.442;7.540;2023-07-13T03:46:01;15.50;99.90
42201;DHT22;27869;51.442;7.540;2023-07-13T03:48:27;15.50;99.90
42201;DHT22;27869;51.442;7.540;2023-07-13T03:50:54;15.50;99.90
42201;DHT22;27869;51.442;7.540;2023-07-13T03:53:21;15.50;99.90
42201;DHT22;27869;51.442;7.540;2023-07-13T03:55:50;15.50;99.90
42201;DHT22;27869;51.442;7.540;2023-07-13T03:58:29;15.40;99.90
42201;DHT22;27869;51.442;7.540;2023-07-13T04:00:56;15.40;99.90
42201;DHT22;27869;51.442;7.540;2023-07-13T04:03:24;15.30;99.90
42201;DHT22;27869;51.442;7.540;2023-07-13T04:05:54;15.30;99.90
42201;DHT22;27869;51.442;7.540;2023-07-13T04:08:25;15.20;99.90
42201;DHT22;27869;51.442;7.540;2023-07-13T04:10:53;15.20;99.90
42201;DHT22;27869;51.442;7.540;2023-07-13T04:13:20;15.20;99.90
42201;DHT22;27869;51.442;7.540;2023-07-13T04:15:47;15.20;99.90
42201;DHT22;27869;51.442;7.540;2023-07-13T04:18:14;15.20;99.90
42201;DHT22;27869;51.442;7.540;2023-07-13T04:20:41;15.20;99.90
42201;DHT22;27869;51.442;7.540;2023-07-13T04:23:08;15.20;99.90
42201;DHT22;27869;51.442;7.540;2023-07-13T04:25:35;15.30;99.90
42201;DHT22;27869;51.442;7.540;2023-07-13T04:28:04;15.30;99.90
42201;DHT22;27869;51.442;7.540;2023-07-13T04:30:31;15.30;99.90
42201;DHT22;27869;51.442;7.540;2023-07-13T04:32:58;15.40;99.90
42201;DHT22;27869;51.442;7.540;2023-07-13T04:35:25;15.40;99.90
42201;DHT22;27869;51.442;7.540;2023-07-13T04:37:52;15.40;99.90
42201;DHT22;27869;51.442;7.540;2023-07-13T04:40:19;15.40;99.90
42201;DHT22;27869;51.442;7.540;2023-07-13T04:42:47;15.50;99.90
42201;DHT22;27869;51.442;7.540;2023-07-13T04:45:15;15.50;99.90
42201;DHT22;27869;51.442;7.540;2023-07-13T04:47:42;15.50;99.90
42201;DHT22;27869;51.442;7.540;2023-07-13T04:50:10;15.60;99.90
42201;DHT22;27869;51.442;7.540;2023-07-13T04:52:37;15.60;99.90
42201;DHT22;27869;51.442;7.540;2023-07-13T04:55:05;15.60;99.90
42201;DHT22;27869;51.442;7.540;2023-07-13T04:57:32;15.60;99.90
42201;DHT22;27869;51.442;7.540;2023-07-13T04:59:59;15.70;99.90
42201;DHT22;27869;51.442;7.540;2023-07-13T05:02:28;15.70;99.90
42201;DHT22;27869;51.442;7.540;2023-07-13T05:04:56;15.70;99.90
42201;DHT22;27869;51.442;7.540;2023-07-13T05:07:24;15.80;99.90
42201;DHT22;27869;51.442;7.540;2023-07-13T05:09:51;15.80;99.90
42201;DHT22;27869;51.442;7.540;2023-07-13T05:12:18;15.80;99.90
42201;DHT22;27869;51.442;7.540;2023-07-13T05:14:45;15.80;99.90
42201;DHT22;27869;51.442;7.540;2023-07-13T05:17:14;15.80;99.90
42201;DHT22;27869;51.442;7.540;2023-07-13T05:19:42;15.90;99.90
42201;DHT22;27869;51.442;7.540;2023-07-13T05:22:09;15.90;99.90
42201;DHT22;27869;51.442;7.540;2023-07-13T05:24:36;15.90;99.90
42201;DHT22;27869;51.442;7.540;2023-07-13T05:27:04;15.90;99.90
42201;DHT22;27869;51.442;7.540;2023-07-13T05:29:31;15.90;99.90
42201;DHT22;27869;51.442;7.540;2023-07-13T05:31:57;16.00;99.90
42201;DHT22;27869;51.442;7.540;2023-07-13T05:34:24;16.00;99.90
42201;DHT22;27869;51.442;7.540;2023-07-13T05:36:53;16.00;99.90
42201;DHT22;27869;51.442;7.540;2023-07-13T05:39:20;16.10;99.90
42201;DHT22;27869;51.442;7.540;2023-07-13T05:41:47;16.00;99.90
42201;DHT22;27869;51.442;7.540;2023-07-13T05:44:14;16.10;99.90
42201;DHT22;27869;51.442;7.540;2023-07-13T05:46:41;16.10;99.90
42201;DHT22;27869;51.442;7.540;2023-07-13T05:49:07;16.20;99.90
42201;DHT22;27869;51.442;7.540;2023-07-13T05:51:34;16.30;99.90
42201;DHT22;27869;51.442;7.540;2023-07-13T05:54:03;16.30;99.90
42201;DHT22;27869;51.442;7.540;2023-07-13T05:56:30;16.30;99.90
42201;DHT22;27869;51.442;7.540;2023-07-13T05:58:56;16.40;99.90
42201;DHT22;27869;51.442;7.540;2023-07-13T06:01:23;16.40;99.90
42201;DHT22;27869;51.442;7.540;2023-07-13T06:03:50;16.40;99.90
42201;DHT22;27869;51.442;7.540;2023-07-13T06:06:17;16.50;99.90
42201;DHT22;27869;51.442;7.540;2023-07-13T06:08:44;16.50;99.90
42201;DHT22;27869;51.442;7.540;2023-07-13T06:11:15;16.50;99.90
42201;DHT22;27869;51.442;7.540;2023-07-13T06:13:42;16.50;99.90
42201;DHT22;27869;51.442;7.540;2023-07-13T06:16:09;16.60;99.90
42201;DHT22;27869;51.442;7.540;2023-07-13T06:18:37;16.60;99.90
42201;DHT22;27869;51.442;7.540;2023-07-13T06:21:08;16.60;99.90
42201;DHT22;27869;51.442;7.540;2023-07-13T06:23:35;16.70;99.90
42201;DHT22;27869;51.442;7.540;2023-07-13T06:26:02;16.70;99.90
42201;DHT22;27869;51.442;7.540;2023-07-13T06:28:31;16.80;99.90
42201;DHT22;27869;51.442;7.540;2023-07-13T06:30:58;16.90;99.90
42201;DHT22;27869;51.442;7.540;2023-07-13T06:33:25;16.90;99.90
42201;DHT22;27869;51.442;7.540;2023-07-13T06:35:53;16.90;99.90
42201;DHT22;27869;51.442;7.540;2023-07-13T06:38:20;17.00;99.90
42201;DHT22;27869;51.442;7.540;2023-07-13T06:40:47;17.10;99.90
42201;DHT22;27869;51.442;7.540;2023-07-13T06:43:17;17.10;99.90
42201;DHT22;27869;51.442;7.540;2023-07-13T06:45:47;17.10;99.90
42201;DHT22;27869;51.442;7.540;2023-07-13T06:48:16;17.10;99.90
42201;DHT22;27869;51.442;7.540;2023-07-13T06:50:43;17.10;99.90
42201;DHT22;27869;51.442;7.540;2023-07-13T06:53:11;17.10;99.90
42201;DHT22;27869;51.442;7.540;2023-07-13T06:55:39;17.20;99.90
42201;DHT22;27869;51.442;7.540;2023-07-13T06:58:06;17.20;99.90
42201;DHT22;27869;51.442;7.540;2023-07-13T07:00:36;17.20;99.90
42201;DHT22;27869;51.442;7.540;2023-07-13T07:03:07;17.20;99.90
42201;DHT22;27869;51.442;7.540;2023-07-13T07:05:33;17.30;99.90
42201;DHT22;27869;51.442;7.540;2023-07-13T07:08:02;17.40;99.90
42201;DHT22;27869;51.442;7.540;2023-07-13T07:10:30;17.50;99.90
42201;DHT22;27869;51.442;7.540;2023-07-13T07:12:58;17.60;99.90
42201;DHT22;27869;51.442;7.540;2023-07-13T07:15:25;17.70;99.90
42201;DHT22;27869;51.442;7.540;2023-07-13T07:17:53;17.80;99.90
42201;DHT22;27869;51.442;7.540;2023-07-13T07:20:22;17.90;99.90
42201;DHT22;27869;51.442;7.540;2023-07-13T07:22:51;18.10;99.90
42201;DHT22;27869;51.442;7.540;2023-07-13T07:25:18;18.20;99.90
42201;DHT22;27869;51.442;7.540;2023-07-13T07:27:45;18.30;99.90
42201;DHT22;27869;51.442;7.540;2023-07-13T07:30:13;18.40;99.90
42201;DHT22;27869;51.442;7.540;2023-07-13T07:32:43;18.50;99.90
42201;DHT22;27869;51.442;7.540;2023-07-13T07:35:13;18.60;99.90
42201;DHT22;27869;51.442;7.540;2023-07-13T07:37:43;18.70;99.90
42201;DHT22;27869;51.442;7.540;2023-07-13T07:40:13;18.80;99.90
42201;DHT22;27869;51.442;7.540;2023-07-13T07:42:41;18.90;99.90
42201;DHT22;27869;51.442;7.540;2023-07-13T07:45:11;18.90;99.90
42201;DHT22;27869;51.442;7.540;2023-07-13T07:47:41;19.00;99.90
42201;DHT22;27869;51.442;7.540;2023-07-13T07:50:12;19.10;99.90
42201;DHT22;27869;51.442;7.540;2023-07-13T07:52:39;19.20;99.90
42201;DHT22;27869;51.442;7.540;2023-07-13T07:55:11;19.30;99.90
42201;DHT22;27869;51.442;7.540;2023-07-13T07:57:41;19.40;99.90
42201;DHT22;27869;51.442;7.540;2023-07-13T08:00:10;19.40;99.90
42201;DHT22;27869;51.442;7.540;2023-07-13T08:02:39;19.50;99.90
42201;DHT22;27869;51.442;7.540;2023-07-13T08:05:11;19.60;99.90
42201;DHT22;27869;51.442;7.540;2023-07-13T08:07:39;19.70;99.90
42201;DHT22;27869;51.442;7.540;2023-07-13T08:10:08;19.70;99.90
42201;DHT22;27869;51.442;7.540;2023-07-13T08:12:40;19.70;99.90
42201;DHT22;27869;51.442;7.540;2023-07-13T08:15:14;19.70;99.90
42201;DHT22;27869;51.442;7.540;2023-07-13T08:17:42;19.90;99.90
42201;DHT22;27869;51.442;7.540;2023-07-13T08:20:10;20.00;99.90
42201;DHT22;27869;51.442;7.540;2023-07-13T08:22:37;20.20;99.90
42201;DHT22;27869;51.442;7.540;2023-07-13T08:25:04;20.40;99.90
42201;DHT22;27869;51.442;7.540;2023-07-13T08:27:33;20.50;99.90
42201;DHT22;27869;51.442;7.540;2023-07-13T08:30:04;20.60;99.90
42201;DHT22;27869;51.442;7.540;2023-07-13T08:32:33;20.70;99.90
42201;DHT22;27869;51.442;7.540;2023-07-13T08:35:05;20.90;99.90
42201;DHT22;27869;51.442;7.540;2023-07-13T08:37:32;20.90;99.90
42201;DHT22;27869;51.442;7.540;2023-07-13T08:39:59;21.00;99.90
42201;DHT22;27869;51.442;7.540;2023-07-13T08:42:37;21.00;99.90
42201;DHT22;27869;51.442;7.540;2023-07-13T08:45:11;21.00;99.90
42201;DHT22;27869;51.442;7.540;2023-07-13T08:47:46;21.00;99.90
42201;DHT22;27869;51.442;7.540;2023-07-13T08:50:17;21.10;99.90
42201;DHT22;27869;51.442;7.540;2023-07-13T08:52:45;21.30;99.90
42201;DHT22;27869;51.442;7.540;2023-07-13T08:55:15;21.50;99.90
42201;DHT22;27869;51.442;7.540;2023-07-13T08:57:48;21.50;99.90
42201;DHT22;27869;51.442;7.540;2023-07-13T09:00:17;21.50;99.90
42201;DHT22;27869;51.442;7.540;2023-07-13T09:02:46;21.60;99.90
42201;DHT22;27869;51.442;7.540;2023-07-13T09:05:18;21.60;99.90
42201;DHT22;27869;51.442;7.540;2023-07-13T09:08:01;21.70;99.90
42201;DHT22;27869;51.442;7.540;2023-07-13T09:10:35;21.90;99.90
42201;DHT22;27869;51.442;7.540;2023-07-13T09:13:19;22.00;99.90
42201;DHT22;27869;51.442;7.540;2023-07-13T09:15:49;22.10;99.90
42201;DHT22;27869;51.442;7.540;2023-07-13T09:18:22;22.20;99.90
42201;DHT22;27869;51.442;7.540;2023-07-13T09:20:53;22.30;99.90
42201;DHT22;27869;51.442;7.540;2023-07-13T09:23:22;22.50;99.90
42201;DHT22;27869;51.442;7.540;2023-07-13T09:25:54;22.60;99.90
42201;DHT22;27869;51.442;7.540;2023-07-13T09:28:25;22.70;99.90
42201;DHT22;27869;51.442;7.540;2023-07-13T09:30:58;22.80;99.90
42201;DHT22;27869;51.442;7.540;2023-07-13T09:33:27;22.90;99.90
42201;DHT22;27869;51.442;7.540;2023-07-13T09:35:55;23.00;99.90
42201;DHT22;27869;51.442;7.540;2023-07-13T09:38:25;23.00;99.90
42201;DHT22;27869;51.442;7.540;2023-07-13T09:41:02;23.00;99.90
42201;DHT22;27869;51.442;7.540;2023-07-13T09:43:35;23.10;99.90
42201;DHT22;27869;51.442;7.540;2023-07-13T09:46:02;23.20;99.90
42201;DHT22;27869;51.442;7.540;2023-07-13T09:48:34;23.30;99.90
42201;DHT22;27869;51.442;7.540;2023-07-13T09:51:10;23.50;99.90
42201;DHT22;27869;51.442;7.540;2023-07-13T09:53:41;23.60;99.90
42201;DHT22;27869;51.442;7.540;2023-07-13T09:56:19;23.70;99.90
42201;DHT22;27869;51.442;7.540;2023-07-13T09:58:47;23.90;99.90
42201;DHT22;27869;51.442;7.540;2023-07-13T10:01:15;24.00;99.90
42201;DHT22;27869;51.442;7.540;2023-07-13T10:03:52;23.90;99.90
42201;DHT22;27869;51.442;7.540;2023-07-13T10:06:21;23.80;99.20
42201;DHT22;27869;51.442;7.540;2023-07-13T10:08:50;23.70;99.90
42201;DHT22;27869;51.442;7.540;2023-07-13T10:11:19;23.80;99.90
42201;DHT22;27869;51.442;7.540;2023-07-13T10:13:52;23.80;99.40
42201;DHT22;27869;51.442;7.540;2023-07-13T10:16:21;23.90;98.50
42201;DHT22;27869;51.442;7.540;2023-07-13T10:18:53;24.00;99.20
42201;DHT22;27869;51.442;7.540;2023-07-13T10:21:22;24.20;99.90
42201;DHT22;27869;51.442;7.540;2023-07-13T10:23:53;24.10;98.80
42201;DHT22;27869;51.442;7.540;2023-07-13T10:26:25;24.10;98.80
42201;DHT22;27869;51.442;7.540;2023-07-13T10:28:57;24.00;97.10
42201;DHT22;27869;51.442;7.540;2023-07-13T10:31:25;23.80;98.20
42201;DHT22;27869;51.442;7.540;2023-07-13T10:33:53;23.90;98.30
42201;DHT22;27869;51.442;7.540;2023-07-13T10:36:27;23.80;96.80
42201;DHT22;27869;51.442;7.540;2023-07-13T10:38:57;23.60;97.70
42201;DHT22;27869;51.442;7.540;2023-07-13T10:41:26;23.50;97.20
42201;DHT22;27869;51.442;7.540;2023-07-13T10:43:56;23.20;96.40
42201;DHT22;27869;51.442;7.540;2023-07-13T10:46:25;23.10;97.80
42201;DHT22;27869;51.442;7.540;2023-07-13T10:48:57;22.90;97.10
42201;DHT22;27869;51.442;7.540;2023-07-13T10:51:25;23.00;98.00
42201;DHT22;27869;51.442;7.540;2023-07-13T10:54:15;23.10;98.70
42201;DHT22;27869;51.442;7.540;2023-07-13T10:56:44;23.00;96.70
42201;DHT22;27869;51.442;7.540;2023-07-13T10:59:15;22.90;97.70
42201;DHT22;27869;51.442;7.540;2023-07-13T11:01:50;22.80;97.10
42201;DHT22;27869;51.442;7.540;2023-07-13T11:04:20;22.90;98.00
42201;DHT22;27869;51.442;7.540;2023-07-13T11:06:49;23.20;98.70
42201;DHT22;27869;51.442;7.540;2023-07-13T11:09:35;23.60;98.40
42201;DHT22;27869;51.442;7.540;2023-07-13T11:12:08;24.00;97.80
42201;DHT22;27869;51.442;7.540;2023-07-13T11:15:01;24.20;98.00
42201;DHT22;27869;51.442;7.540;2023-07-13T11:17:38;24.20;96.50
42201;DHT22;27869;51.442;7.540;2023-07-13T11:20:31;24.00;94.70
42201;DHT22;27869;51.442;7.540;2023-07-13T11:23:20;23.70;96.10
42201;DHT22;27869;51.442;7.540;2023-07-13T11:25:48;23.50;94.60
42201;DHT22;27869;51.442;7.540;2023-07-13T11:28:22;23.30;96.20
42201;DHT22;27869;51.442;7.540;2023-07-13T11:31:01;23.10;96.10
42201;DHT22;27869;51.442;7.540;2023-07-13T11:33:52;22.90;96.70
42201;DHT22;27869;51.442;7.540;2023-07-13T11:36:21;22.90;96.40
42201;DHT22;27869;51.442;7.540;2023-07-13T11:38:57;22.90;97.60
42201;DHT22;27869;51.442;7.540;2023-07-13T11:41:30;22.90;96.50
42201;DHT22;27869;51.442;7.540;2023-07-13T11:44:08;22.90;96.70
42201;DHT22;27869;51.442;7.540;2023-07-13T11:46:43;22.90;97.70
42201;DHT22;27869;51.442;7.540;2023-07-13T11:49:15;23.00;97.90
42201;DHT22;27869;51.442;7.540;2023-07-13T11:51:43;23.10;98.10
42201;DHT22;27869;51.442;7.540;2023-07-13T11:54:19;23.10;97.00
42201;DHT22;27869;51.442;7.540;2023-07-13T11:56:48;23.00;97.50
42201;DHT22;27869;51.442;7.540;2023-07-13T11:59:15;23.00;97.80
42201;DHT22;27869;51.442;7.540;2023-07-13T12:01:46;23.00;96.80
42201;DHT22;27869;51.442;7.540;2023-07-13T12:04:24;23.10;97.50
42201;DHT22;27869;51.442;7.540;2023-07-13T12:06:56;23.10;97.00
42201;DHT22;27869;51.442;7.540;2023-07-13T12:09:27;23.10;96.70
42201;DHT22;27869;51.442;7.540;2023-07-13T12:11:57;23.00;95.80
42201;DHT22;27869;51.442;7.540;2023-07-13T12:14:26;22.90;95.60
42201;DHT22;27869;51.442;7.540;2023-07-13T12:16:55;23.00;97.30
42201;DHT22;27869;51.442;7.540;2023-07-13T12:19:24;23.00;94.60
42201;DHT22;27869;51.442;7.540;2023-07-13T12:21:55;22.90;96.20
42201;DHT22;27869;51.442;7.540;2023-07-13T12:24:23;22.90;94.90
42201;DHT22;27869;51.442;7.540;2023-07-13T12:26:52;22.80;95.80
42201;DHT22;27869;51.442;7.540;2023-07-13T12:29:19;22.80;95.70
42201;DHT22;27869;51.442;7.540;2023-07-13T12:31:47;22.80;94.90
42201;DHT22;27869;51.442;7.540;2023-07-13T12:34:17;22.70;95.10
42201;DHT22;27869;51.442;7.540;2023-07-13T12:36:47;22.80;95.80
42201;DHT22;27869;51.442;7.540;2023-07-13T12:39:17;22.90;96.70
42201;DHT22;27869;51.442;7.540;2023-07-13T12:41:45;22.90;96.60
42201;DHT22;27869;51.442;7.540;2023-07-13T12:44:14;23.00;96.20
42201;DHT22;27869;51.442;7.540;2023-07-13T12:46:56;23.00;95.10
42201;DHT22;27869;51.442;7.540;2023-07-13T12:49:28;23.00;93.40
42201;DHT22;27869;51.442;7.540;2023-07-13T12:52:00;22.90;93.60
42201;DHT22;27869;51.442;7.540;2023-07-13T12:54:28;22.90;94.30
42201;DHT22;27869;51.442;7.540;2023-07-13T12:56:56;22.80;93.90
42201;DHT22;27869;51.442;7.540;2023-07-13T12:59:25;22.90;94.70
42201;DHT22;27869;51.442;7.540;2023-07-13T13:01:55;22.90;93.80
42201;DHT22;27869;51.442;7.540;2023-07-13T13:04:22;22.90;93.90
42201;DHT22;27869;51.442;7.540;2023-07-13T13:07:00;22.90;94.20
42201;DHT22;27869;51.442;7.540;2023-07-13T13:09:27;22.90;93.50
42201;DHT22;27869;51.442;7.540;2023-07-13T13:11:54;23.00;94.20
42201;DHT22;27869;51.442;7.540;2023-07-13T13:14:21;23.00;94.50
42201;DHT22;27869;51.442;7.540;2023-07-13T13:16:50;23.10;94.00
42201;DHT22;27869;51.442;7.540;2023-07-13T13:19:20;23.10;94.40
42201;DHT22;27869;51.442;7.540;2023-07-13T13:21:48;23.10;94.30
42201;DHT22;27869;51.442;7.540;2023-07-13T13:24:20;23.20;94.00
42201;DHT22;27869;51.442;7.540;2023-07-13T13:26:49;23.20;94.00
42201;DHT22;27869;51.442;7.540;2023-07-13T13:29:17;23.20;94.20
42201;DHT22;27869;51.442;7.540;2023-07-13T13:31:45;23.20;93.70
42201;DHT22;27869;51.442;7.540;2023-07-13T13:34:13;23.30;94.00
42201;DHT22;27869;51.442;7.540;2023-07-13T13:36:41;23.30;93.70
42201;DHT22;27869;51.442;7.540;2023-07-13T13:39:20;23.30;93.70
42201;DHT22;27869;51.442;7.540;2023-07-13T13:41:48;23.20;93.40
42201;DHT22;27869;51.442;7.540;2023-07-13T13:44:16;23.30;93.60
42201;DHT22;27869;51.442;7.540;2023-07-13T13:46:44;23.20;92.90
42201;DHT22;27869;51.442;7.540;2023-07-13T13:49:14;23.10;93.50
42201;DHT22;27869;51.442;7.540;2023-07-13T13:51:41;23.10;93.60
42201;DHT22;27869;51.442;7.540;2023-07-13T13:54:11;23.00;93.80
42201;DHT22;27869;51.442;7.540;2023-07-13T13:56:41;22.90;93.30
42201;DHT22;27869;51.442;7.540;2023-07-13T13:59:09;22.80;93.10
42201;DHT22;27869;51.442;7.540;2023-07-13T14:01:36;22.60;93.40
42201;DHT22;27869;51.442;7.540;2023-07-13T14:04:03;22.50;93.80
42201;DHT22;27869;51.442;7.540;2023-07-13T14:06:31;22.40;94.80
42201;DHT22;27869;51.442;7.540;2023-07-13T14:08:59;22.20;95.70
42201;DHT22;27869;51.442;7.540;2023-07-13T14:11:26;21.90;96.40
42201;DHT22;27869;51.442;7.540;2023-07-13T14:13:58;21.60;97.50
42201;DHT22;27869;51.442;7.540;2023-07-13T14:16:28;21.30;98.20
42201;DHT22;27869;51.442;7.540;2023-07-13T14:18:58;21.10;98.40
42201;DHT22;27869;51.442;7.540;2023-07-13T14:21:27;21.00;99.30
42201;DHT22;27869;51.442;7.540;2023-07-13T14:23:54;20.80;99.70
42201;DHT22;27869;51.442;7.540;2023-07-13T14:26:22;20.80;99.90
42201;DHT22;27869;51.442;7.540;2023-07-13T14:28:52;20.80;99.90
42201;DHT22;27869;51.442;7.540;2023-07-13T14:31:21;20.70;99.90
42201;DHT22;27869;51.442;7.540;2023-07-13T14:33:48;20.70;99.90
42201;DHT22;27869;51.442;7.540;2023-07-13T14:36:23;20.70;99.90
42201;DHT22;27869;51.442;7.540;2023-07-13T14:38:51;20.70;99.90
42201;DHT22;27869;51.442;7.540;2023-07-13T14:41:19;20.70;99.90
42201;DHT22;27869;51.442;7.540;2023-07-13T14:43:46;20.70;99.90
42201;DHT22;27869;51.442;7.540;2023-07-13T14:46:24;20.70;99.90
42201;DHT22;27869;51.442;7.540;2023-07-13T14:48:54;20.70;99.90
42201;DHT22;27869;51.442;7.540;2023-07-13T14:51:25;20.70;99.90
42201;DHT22;27869;51.442;7.540;2023-07-13T14:53:52;20.70;99.90
42201;DHT22;27869;51.442;7.540;2023-07-13T14:56:18;20.70;99.90
42201;DHT22;27869;51.442;7.540;2023-07-13T14:58:45;20.70;99.90
42201;DHT22;27869;51.442;7.540;2023-07-13T15:01:14;20.60;99.90
42201;DHT22;27869;51.442;7.540;2023-07-13T15:03:46;20.50;99.90
42201;DHT22;27869;51.442;7.540;2023-07-13T15:06:14;20.40;99.90
42201;DHT22;27869;51.442;7.540;2023-07-13T15:08:41;20.20;99.90
42201;DHT22;27869;51.442;7.540;2023-07-13T15:11:08;20.00;99.90
42201;DHT22;27869;51.442;7.540;2023-07-13T15:13:37;19.90;99.90
42201;DHT22;27869;51.442;7.540;2023-07-13T15:16:05;19.90;99.90
42201;DHT22;27869;51.442;7.540;2023-07-13T15:18:37;19.90;99.90
42201;DHT22;27869;51.442;7.540;2023-07-13T15:21:10;19.90;99.90
42201;DHT22;27869;51.442;7.540;2023-07-13T15:23:40;20.00;99.90
42201;DHT22;27869;51.442;7.540;2023-07-13T15:26:11;20.00;99.90
42201;DHT22;27869;51.442;7.540;2023-07-13T15:28:38;20.10;99.90
42201;DHT22;27869;51.442;7.540;2023-07-13T15:31:19;20.10;99.90
42201;DHT22;27869;51.442;7.540;2023-07-13T15:33:46;20.20;99.90
42201;DHT22;27869;51.442;7.540;2023-07-13T15:36:16;20.30;99.90
42201;DHT22;27869;51.442;7.540;2023-07-13T15:38:44;20.30;99.90
42201;DHT22;27869;51.442;7.540;2023-07-13T15:41:20;20.30;99.90
42201;DHT22;27869;51.442;7.540;2023-07-13T15:43:48;20.40;99.90